createdAt,value
2023-11-25T00:01:03.744Z,61.82
2023-11-25T00:03:31.559Z,60.94
2023-11-25T00:05:58.858Z,60.67
2023-11-25T00:08:28.143Z,60.87
2023-11-25T00:10:57.122Z,62.04
2023-11-25T00:13:25.858Z,61.56
2023-11-25T00:15:56.003Z,61.07
2023-11-25T00:18:23.971Z,60.80
2023-11-25T00:20:51.273Z,60.04
2023-11-25T00:23:19.218Z,59.95
2023-11-25T00:25:47.061Z,61.50
2023-11-25T00:28:18.734Z,60.46
2023-11-25T00:30:46.557Z,60.38
2023-11-25T00:33:14.446Z,60.68
2023-11-25T00:35:42.265Z,61.08
2023-11-25T00:38:09.821Z,61.05
2023-11-25T00:40:37.213Z,60.66
2023-11-25T00:43:05.070Z,61.35
2023-11-25T00:45:35.428Z,61.84
2023-11-25T00:48:03.917Z,61.15
2023-11-25T00:50:31.147Z,59.97
2023-11-25T00:52:59.245Z,59.88
2023-11-25T00:55:27.960Z,60.64
2023-11-25T00:57:56.212Z,61.15
2023-11-25T01:00:26.991Z,60.90
2023-11-25T01:02:56.374Z,60.29
2023-11-25T01:05:24.246Z,60.56
2023-11-25T01:07:53.120Z,60.22
2023-11-25T01:10:20.940Z,60.36
2023-11-25T01:12:48.800Z,60.57
2023-11-25T01:15:16.505Z,60.62
2023-11-25T01:17:43.730Z,59.65
2023-11-25T01:20:12.066Z,59.54
2023-11-25T01:22:40.919Z,60.52
2023-11-25T01:25:09.104Z,59.74
2023-11-25T01:27:37.200Z,60.13
2023-11-25T01:30:06.502Z,59.30
2023-11-25T01:32:34.135Z,58.79
2023-11-25T01:35:02.023Z,58.06
2023-11-25T01:37:31.218Z,58.08
2023-11-25T01:39:59.443Z,57.33
2023-11-25T01:42:26.638Z,58.10
2023-11-25T01:44:54.264Z,58.51
2023-11-25T01:47:22.150Z,58.27
2023-11-25T01:49:50.961Z,59.07
2023-11-25T01:52:23.620Z,58.96
2023-11-25T01:54:57.810Z,58.51
2023-11-25T01:57:26.492Z,59.00
2023-11-25T01:59:54.102Z,58.58
2023-11-25T02:02:29.984Z,57.96
2023-11-25T02:05:00.381Z,58.35
2023-11-25T02:07:28.411Z,57.44
2023-11-25T02:09:56.499Z,57.17
2023-11-25T02:12:25.160Z,57.21
2023-11-25T02:14:52.882Z,57.11
2023-11-25T02:17:22.288Z,57.48
2023-11-25T02:19:49.509Z,57.46
2023-11-25T02:22:17.243Z,56.63
2023-11-25T02:24:44.528Z,56.64
2023-11-25T02:27:13.406Z,57.31
2023-11-25T02:29:41.143Z,56.83
2023-11-25T02:32:08.616Z,56.40
2023-11-25T02:34:36.125Z,56.14
2023-11-25T02:37:04.070Z,55.60
2023-11-25T02:39:31.847Z,55.99
2023-11-25T02:41:59.431Z,56.62
2023-11-25T02:44:28.570Z,56.81
2023-11-25T02:46:56.188Z,57.07
2023-11-25T02:49:23.720Z,57.60
2023-11-25T02:51:56.859Z,57.30
2023-11-25T02:54:25.863Z,57.21
2023-11-25T02:56:53.676Z,57.46
2023-11-25T02:59:21.058Z,57.35
2023-11-25T03:01:53.483Z,56.83
2023-11-25T03:04:24.606Z,57.16
2023-11-25T03:06:53.027Z,57.02
2023-11-25T03:09:21.225Z,55.97
2023-11-25T03:11:49.167Z,56.54
2023-11-25T03:14:17.561Z,56.58
2023-11-25T03:16:45.307Z,56.52
2023-11-25T03:19:14.307Z,56.41
2023-11-25T03:21:44.328Z,55.89
2023-11-25T03:24:11.681Z,55.53
2023-11-25T03:26:39.806Z,55.96
2023-11-25T03:29:07.467Z,55.39
2023-11-25T03:31:35.075Z,55.52
2023-11-25T03:34:02.798Z,54.99
2023-11-25T03:36:30.245Z,55.48
2023-11-25T03:38:57.625Z,54.59
2023-11-25T03:41:24.767Z,54.84
2023-11-25T03:43:51.939Z,55.22
2023-11-25T03:46:19.904Z,54.90
2023-11-25T03:48:48.504Z,54.80
2023-11-25T03:51:16.508Z,55.17
2023-11-25T03:53:44.188Z,55.59
2023-11-25T03:56:14.883Z,56.19
2023-11-25T03:58:42.804Z,56.09
2023-11-25T04:01:10.416Z,55.45
2023-11-25T04:03:38.017Z,55.15
2023-11-25T04:06:06.215Z,54.51
2023-11-25T04:08:33.706Z,54.74
2023-11-25T04:11:02.198Z,55.21
2023-11-25T04:13:30.026Z,55.23
2023-11-25T04:15:57.624Z,55.31
2023-11-25T04:18:25.763Z,55.03
2023-11-25T04:20:54.010Z,54.75
2023-11-25T04:23:23.567Z,54.78
2023-11-25T04:25:50.931Z,54.70
2023-11-25T04:28:22.107Z,54.93
2023-11-25T04:30:49.738Z,54.79
2023-11-25T04:33:16.903Z,54.64
2023-11-25T04:35:44.204Z,54.83
2023-11-25T04:38:11.646Z,53.93
2023-11-25T04:40:38.989Z,53.49
2023-11-25T04:43:06.700Z,53.61
2023-11-25T04:45:36.036Z,53.54
2023-11-25T04:48:04.794Z,53.73
2023-11-25T04:50:32.148Z,53.39
2023-11-25T04:53:00.999Z,52.96
2023-11-25T04:55:29.533Z,52.88
2023-11-25T04:57:57.610Z,53.23
2023-11-25T05:00:25.305Z,53.67
2023-11-25T05:02:52.841Z,53.42
2023-11-25T05:05:20.356Z,53.58
2023-11-25T05:07:50.953Z,54.17
2023-11-25T05:10:20.749Z,54.46
2023-11-25T05:12:52.061Z,55.53
2023-11-25T05:15:19.680Z,54.30
2023-11-25T05:17:47.689Z,55.05
2023-11-25T05:20:17.547Z,55.07
2023-11-25T05:22:46.332Z,55.46
2023-11-25T05:25:17.023Z,55.86
2023-11-25T05:27:45.200Z,54.66
2023-11-25T05:30:14.321Z,54.92
2023-11-25T05:32:45.991Z,55.49
2023-11-25T05:35:14.953Z,54.88
2023-11-25T05:37:45.620Z,54.88
2023-11-25T05:40:16.666Z,55.13
2023-11-25T05:42:50.130Z,56.18
2023-11-25T05:45:19.477Z,55.93
2023-11-25T05:47:48.632Z,55.91
2023-11-25T05:50:22.454Z,55.97
2023-11-25T05:52:52.366Z,55.49
2023-11-25T05:55:21.058Z,56.20
2023-11-25T05:57:52.678Z,55.42
2023-11-25T06:00:22.466Z,55.35
2023-11-25T06:02:50.373Z,55.38
2023-11-25T06:05:17.784Z,55.00
2023-11-25T06:07:51.222Z,54.63
2023-11-25T06:10:20.155Z,54.61
2023-11-25T06:12:48.000Z,53.94
2023-11-25T06:15:16.745Z,53.83
2023-11-25T06:17:46.386Z,54.25
2023-11-25T06:20:14.136Z,53.27
2023-11-25T06:22:42.366Z,53.80
2023-11-25T06:25:09.886Z,53.79
2023-11-25T06:27:37.048Z,53.20
2023-11-25T06:30:05.791Z,52.87
2023-11-25T06:32:34.292Z,52.77
2023-11-25T06:35:01.763Z,52.68
2023-11-25T06:37:29.149Z,52.51
2023-11-25T06:39:56.369Z,51.80
2023-11-25T06:42:31.546Z,52.04
2023-11-25T06:45:02.640Z,52.16
2023-11-25T06:47:30.055Z,51.52
2023-11-25T06:49:57.377Z,50.83
2023-11-25T06:52:24.816Z,51.61
2023-11-25T06:54:57.926Z,51.59
2023-11-25T06:57:25.734Z,51.33
2023-11-25T06:59:53.075Z,50.83
2023-11-25T07:02:20.331Z,50.54
2023-11-25T07:04:47.806Z,50.75
2023-11-25T07:07:15.381Z,50.97
2023-11-25T07:09:43.010Z,51.22
2023-11-25T07:12:11.368Z,50.89
2023-11-25T07:14:38.632Z,51.42
2023-11-25T07:17:05.899Z,51.35
2023-11-25T07:19:33.255Z,50.87
2023-11-25T07:22:00.518Z,50.27
2023-11-25T07:24:29.524Z,50.36
2023-11-25T07:27:03.085Z,50.02
2023-11-25T07:29:32.661Z,50.36
2023-11-25T07:32:01.666Z,50.77
2023-11-25T07:34:33.089Z,50.73
2023-11-25T07:37:00.650Z,51.42
2023-11-25T07:39:31.162Z,51.10
2023-11-25T07:41:59.420Z,50.98
2023-11-25T07:44:33.034Z,50.46
2023-11-25T07:47:03.093Z,50.38
2023-11-25T07:49:31.421Z,50.34
2023-11-25T07:51:59.685Z,50.34
2023-11-25T07:54:27.290Z,50.66
2023-11-25T07:56:55.327Z,50.38
2023-11-25T07:59:22.972Z,50.35
2023-11-25T08:01:50.485Z,50.91
2023-11-25T08:04:18.166Z,50.58
2023-11-25T08:06:45.461Z,50.52
2023-11-25T08:09:13.417Z,50.68
2023-11-25T08:11:40.889Z,50.55
2023-11-25T08:14:08.241Z,50.47
2023-11-25T08:16:35.649Z,50.37
2023-11-25T08:19:03.043Z,50.68
2023-11-25T08:21:30.271Z,49.59
2023-11-25T08:23:57.900Z,49.92
2023-11-25T08:26:31.036Z,50.24
2023-11-25T08:29:00.428Z,49.67
2023-11-25T08:31:28.093Z,49.99
2023-11-25T08:33:55.367Z,50.45
2023-11-25T08:36:22.616Z,48.32
2023-11-25T08:38:52.617Z,48.33
2023-11-25T08:41:20.486Z,48.55
2023-11-25T08:43:49.004Z,48.55
2023-11-25T08:46:21.165Z,47.64
2023-11-25T08:48:48.771Z,47.60
2023-11-25T08:51:16.166Z,47.96
2023-11-25T08:53:46.069Z,48.49
2023-11-25T08:56:14.524Z,47.66
2023-11-25T08:58:42.344Z,49.22
2023-11-25T09:01:10.073Z,49.12
2023-11-25T09:03:37.962Z,48.82
2023-11-25T09:06:06.236Z,48.42
2023-11-25T09:08:33.757Z,47.74
2023-11-25T09:11:02.264Z,47.27
2023-11-25T09:13:32.959Z,47.33
2023-11-25T09:16:00.950Z,46.98
2023-11-25T09:18:28.301Z,45.57
2023-11-25T09:20:55.496Z,48.40
2023-11-25T09:23:22.843Z,45.03
2023-11-25T09:25:50.137Z,43.93
2023-11-25T09:28:22.431Z,37.99
2023-11-25T09:30:49.947Z,38.21
2023-11-25T09:33:17.086Z,40.25
2023-11-25T09:35:44.239Z,42.22
2023-11-25T09:38:11.559Z,43.48
2023-11-25T09:40:40.303Z,42.44
2023-11-25T09:43:08.692Z,43.01
2023-11-25T09:45:36.853Z,42.56
2023-11-25T09:48:04.592Z,42.31
2023-11-25T09:50:32.214Z,42.94
2023-11-25T09:53:08.452Z,43.66
2023-11-25T09:55:41.742Z,43.67
2023-11-25T09:58:19.002Z,44.11
2023-11-25T10:00:46.911Z,44.63
2023-11-25T10:03:17.358Z,45.80
2023-11-25T10:05:50.302Z,44.55
2023-11-25T10:08:17.865Z,45.33
2023-11-25T10:11:09.460Z,43.96
2023-11-25T10:13:40.595Z,42.51
2023-11-25T10:16:10.663Z,42.20
2023-11-25T10:18:39.987Z,41.04
2023-11-25T10:21:09.328Z,40.70
2023-11-25T10:23:37.471Z,38.58
2023-11-25T10:26:05.633Z,40.50
2023-11-25T10:28:35.456Z,38.58
2023-11-25T10:31:06.444Z,39.16
2023-11-25T10:33:35.573Z,37.81
2023-11-25T10:36:04.379Z,37.77
2023-11-25T10:38:32.818Z,39.16
2023-11-25T10:41:06.902Z,38.10
2023-11-25T10:43:35.078Z,39.26
2023-11-25T10:46:12.212Z,41.06
2023-11-25T10:48:41.013Z,41.96
2023-11-25T10:51:09.864Z,41.88
2023-11-25T10:53:42.323Z,42.24
2023-11-25T10:56:10.118Z,42.32
2023-11-25T10:58:38.656Z,42.25
2023-11-25T11:01:06.542Z,43.33
2023-11-25T11:04:15.159Z,40.87
2023-11-25T11:06:54.508Z,40.97
2023-11-25T11:09:28.947Z,41.53
2023-11-25T11:12:09.170Z,39.63
2023-11-25T11:14:48.524Z,38.95
2023-11-25T11:18:08.251Z,37.61
2023-11-25T11:20:47.671Z,36.49
2023-11-25T11:23:20.482Z,38.02
2023-11-25T11:26:28.577Z,38.67
2023-11-25T11:29:19.533Z,42.38
2023-11-25T11:32:22.651Z,42.20
2023-11-25T11:34:50.435Z,42.75
2023-11-25T11:37:18.553Z,43.89
2023-11-25T11:40:08.052Z,43.14
2023-11-25T11:42:35.747Z,42.19
2023-11-25T11:45:27.472Z,42.01
2023-11-25T11:47:58.455Z,43.27
2023-11-25T11:50:34.722Z,43.45
2023-11-25T11:53:05.475Z,44.14
2023-11-25T11:55:41.936Z,44.55
2023-11-25T11:58:12.839Z,43.66
2023-11-25T12:01:03.336Z,44.72
2023-11-25T12:03:34.751Z,46.13
2023-11-25T12:06:02.523Z,47.70
2023-11-25T12:08:31.815Z,48.72
2023-11-25T12:10:59.745Z,52.65
2023-11-25T12:13:32.504Z,53.58
2023-11-25T12:16:01.765Z,54.26
2023-11-25T12:18:35.002Z,53.46
2023-11-25T12:21:09.860Z,53.79
2023-11-25T12:23:45.352Z,52.81
2023-11-25T12:26:26.730Z,51.78
2023-11-25T12:28:54.465Z,52.05
2023-11-25T12:31:22.046Z,50.75
2023-11-25T12:33:49.921Z,49.97
2023-11-25T12:36:17.578Z,50.21
2023-11-25T12:38:44.858Z,50.46
2023-11-25T12:41:16.584Z,49.87
2023-11-25T12:44:12.774Z,49.86
2023-11-25T12:46:43.449Z,50.76
2023-11-25T12:49:24.919Z,49.88
2023-11-25T12:51:53.816Z,50.08
2023-11-25T12:54:21.821Z,49.35
2023-11-25T12:56:51.583Z,50.13
2023-11-25T12:59:29.474Z,50.77
2023-11-25T13:02:10.349Z,51.42
2023-11-25T13:04:51.442Z,51.94
2023-11-25T13:07:35.506Z,52.94
2023-11-25T13:10:08.336Z,51.97
2023-11-25T13:12:37.821Z,51.99
2023-11-25T13:15:05.979Z,52.71
2023-11-25T13:17:33.315Z,52.79
2023-11-25T13:20:00.719Z,52.37
2023-11-25T13:22:28.094Z,51.57
2023-11-25T13:24:55.317Z,51.02
2023-11-25T13:27:23.506Z,51.40
2023-11-25T13:29:51.273Z,51.27
2023-11-25T13:32:18.738Z,51.07
2023-11-25T13:34:46.036Z,50.88
2023-11-25T13:37:13.518Z,51.56
2023-11-25T13:39:40.908Z,51.51
2023-11-25T13:42:08.983Z,51.03
2023-11-25T13:44:36.837Z,50.05
2023-11-25T13:47:04.589Z,49.62
2023-11-25T13:49:34.975Z,51.34
2023-11-25T13:52:02.911Z,52.90
2023-11-25T13:54:37.785Z,52.79
2023-11-25T13:57:05.939Z,52.53
2023-11-25T13:59:33.193Z,54.20
2023-11-25T14:02:03.425Z,53.42
2023-11-25T14:04:33.254Z,54.73
2023-11-25T14:07:00.747Z,54.96
2023-11-25T14:09:28.325Z,54.78
2023-11-25T14:11:55.764Z,54.74
2023-11-25T14:14:23.498Z,54.38
2023-11-25T14:16:52.484Z,54.58
2023-11-25T14:19:20.157Z,54.58
2023-11-25T14:21:47.300Z,54.80
2023-11-25T14:24:14.539Z,52.75
2023-11-25T14:26:41.701Z,53.00
2023-11-25T14:29:09.381Z,53.69
2023-11-25T14:31:36.892Z,54.30
2023-11-25T14:34:04.402Z,53.96
2023-11-25T14:36:31.813Z,53.77
2023-11-25T14:38:59.070Z,53.81
2023-11-25T14:41:27.135Z,53.06
2023-11-25T14:43:54.950Z,53.26
2023-11-25T14:46:23.327Z,53.10
2023-11-25T14:48:51.490Z,51.63
2023-11-25T14:51:19.024Z,52.61
2023-11-25T14:53:46.668Z,53.83
2023-11-25T14:56:14.413Z,52.76
2023-11-25T14:58:42.783Z,53.50
2023-11-25T15:01:10.212Z,52.99
2023-11-25T15:03:40.387Z,54.01
2023-11-25T15:06:08.954Z,53.65
2023-11-25T15:08:39.244Z,52.99
2023-11-25T15:11:08.230Z,53.35
2023-11-25T15:13:35.917Z,54.35
2023-11-25T15:16:03.589Z,54.18
2023-11-25T15:18:31.270Z,53.24
2023-11-25T15:21:02.513Z,52.62
2023-11-25T15:23:29.888Z,53.56
2023-11-25T15:25:57.038Z,53.09
2023-11-25T15:28:25.312Z,53.55
2023-11-25T15:30:52.928Z,53.33
2023-11-25T15:33:20.214Z,53.89
2023-11-25T15:35:47.457Z,53.74
2023-11-25T15:38:14.896Z,53.35
2023-11-25T15:40:42.262Z,53.46
2023-11-25T15:43:10.146Z,53.76
2023-11-25T15:45:37.529Z,53.83
2023-11-25T15:48:05.224Z,53.23
2023-11-25T15:50:33.130Z,53.02
2023-11-25T15:53:00.811Z,53.55
2023-11-25T15:55:28.721Z,53.61
2023-11-25T15:57:56.559Z,53.53
2023-11-25T16:00:24.694Z,52.73
2023-11-25T16:02:54.993Z,52.14
2023-11-25T16:05:25.082Z,52.82
2023-11-25T16:07:52.653Z,52.47
2023-11-25T16:10:19.951Z,52.60
2023-11-25T16:12:47.551Z,53.07
2023-11-25T16:15:16.048Z,52.85
2023-11-25T16:17:43.970Z,53.28
2023-11-25T16:20:16.710Z,52.95
2023-11-25T16:22:44.429Z,53.92
2023-11-25T16:25:12.001Z,53.35
2023-11-25T16:27:39.287Z,52.78
2023-11-25T16:30:09.594Z,52.60
2023-11-25T16:32:37.315Z,52.22
2023-11-25T16:35:06.036Z,52.02
2023-11-25T16:37:34.275Z,52.81
2023-11-25T16:40:01.602Z,51.77
2023-11-25T16:42:29.052Z,51.32
2023-11-25T16:44:56.740Z,52.63
2023-11-25T16:47:25.876Z,50.50
2023-11-25T16:49:53.850Z,49.83
2023-11-25T16:52:21.227Z,50.10
2023-11-25T16:54:48.744Z,50.63
2023-11-25T16:57:16.410Z,50.77
2023-11-25T16:59:44.517Z,50.23
2023-11-25T17:02:12.661Z,51.52
2023-11-25T17:04:40.255Z,52.57
2023-11-25T17:07:10.084Z,52.26
2023-11-25T17:09:39.628Z,53.25
2023-11-25T17:12:08.182Z,52.54
2023-11-25T17:14:36.940Z,52.77
2023-11-25T17:17:09.890Z,52.61
2023-11-25T17:19:37.489Z,52.37
2023-11-25T17:22:05.285Z,51.29
2023-11-25T17:24:32.457Z,52.30
2023-11-25T17:26:59.591Z,52.54
2023-11-25T17:29:26.982Z,51.84
2023-11-25T17:31:55.345Z,51.62
2023-11-25T17:34:23.582Z,51.68
2023-11-25T17:36:51.635Z,52.91
2023-11-25T17:39:19.136Z,52.30
2023-11-25T17:41:46.801Z,52.29
2023-11-25T17:44:14.333Z,52.24
2023-11-25T17:46:43.563Z,52.21
2023-11-25T17:49:12.338Z,52.41
2023-11-25T17:51:45.153Z,53.41
2023-11-25T17:54:12.553Z,53.02
2023-11-25T17:56:40.148Z,52.52
2023-11-25T17:59:07.898Z,52.20
2023-11-25T18:01:35.908Z,52.10
2023-11-25T18:04:04.471Z,51.85
2023-11-25T18:06:32.190Z,51.91
2023-11-25T18:08:59.842Z,51.36
2023-11-25T18:11:27.545Z,51.47
2023-11-25T18:13:55.067Z,52.08
2023-11-25T18:16:26.168Z,51.62
2023-11-25T18:18:54.074Z,52.46
2023-11-25T18:21:22.136Z,53.00
2023-11-25T18:23:49.606Z,53.06
2023-11-25T18:26:17.241Z,53.42
2023-11-25T18:28:45.122Z,53.57
2023-11-25T18:31:38.369Z,52.63
2023-11-25T18:34:06.236Z,53.15
2023-11-25T18:36:33.663Z,53.58
2023-11-25T18:39:00.922Z,53.63
2023-11-25T18:41:28.518Z,53.50
2023-11-25T18:43:55.827Z,52.50
2023-11-25T18:46:25.824Z,52.94
2023-11-25T18:48:53.505Z,53.25
2023-11-25T18:51:21.192Z,53.50
2023-11-25T18:53:48.608Z,54.57
2023-11-25T18:56:16.495Z,54.69
2023-11-25T18:58:45.316Z,54.49
2023-11-25T19:01:14.500Z,55.14
2023-11-25T19:03:42.550Z,55.60
2023-11-25T19:06:09.781Z,57.43
2023-11-25T19:08:39.172Z,56.89
2023-11-25T19:11:06.564Z,57.46
2023-11-25T19:13:34.154Z,57.63
2023-11-25T19:16:03.820Z,58.14
2023-11-25T19:18:31.370Z,59.18
2023-11-25T19:20:58.808Z,59.91
2023-11-25T19:23:26.005Z,60.08
2023-11-25T19:25:53.750Z,59.48
2023-11-25T19:28:25.096Z,59.82
2023-11-25T19:30:53.317Z,59.77
2023-11-25T19:33:20.888Z,59.23
2023-11-25T19:35:48.302Z,59.59
2023-11-25T19:38:16.291Z,59.40
2023-11-25T19:40:43.712Z,59.50
2023-11-25T19:43:11.133Z,59.43
2023-11-25T19:45:38.794Z,59.51
2023-11-25T19:48:06.779Z,59.56
2023-11-25T19:50:34.256Z,59.21
2023-11-25T19:53:01.809Z,59.45
2023-11-25T19:55:29.751Z,59.08
2023-11-25T19:57:57.366Z,58.66
2023-11-25T20:00:25.067Z,59.30
2023-11-25T20:02:52.495Z,58.92
2023-11-25T20:05:19.830Z,59.24
2023-11-25T20:07:52.091Z,58.52
2023-11-25T20:10:20.751Z,58.27
2023-11-25T20:12:48.814Z,58.34
2023-11-25T20:15:16.334Z,57.51
2023-11-25T20:17:44.145Z,57.82
2023-11-25T20:20:12.398Z,58.54
2023-11-25T20:22:39.927Z,58.24
2023-11-25T20:25:07.810Z,57.72
2023-11-25T20:27:35.630Z,57.64
2023-11-25T20:30:02.907Z,57.50
2023-11-25T20:32:31.904Z,58.24
2023-11-25T20:34:59.439Z,58.92
2023-11-25T20:37:27.217Z,58.54
2023-11-25T20:39:54.460Z,60.04
2023-11-25T20:42:21.989Z,60.70
2023-11-25T20:44:49.603Z,60.86
2023-11-25T20:47:17.296Z,61.47
2023-11-25T20:49:47.257Z,60.30
2023-11-25T20:52:15.401Z,61.15
2023-11-25T20:54:47.132Z,60.88
2023-11-25T20:57:15.410Z,60.52
2023-11-25T20:59:43.212Z,59.88
2023-11-25T21:02:10.584Z,59.83
2023-11-25T21:04:37.999Z,59.37
2023-11-25T21:07:05.741Z,59.53
2023-11-25T21:09:33.427Z,59.45
2023-11-25T21:12:00.958Z,59.15
2023-11-25T21:14:30.415Z,59.24
2023-11-25T21:16:59.611Z,59.15
2023-11-25T21:19:27.448Z,58.92
2023-11-25T21:21:54.660Z,59.65
2023-11-25T21:24:21.790Z,58.89
2023-11-25T21:26:48.982Z,58.94
2023-11-25T21:29:16.329Z,58.22
2023-11-25T21:31:47.590Z,59.00
2023-11-25T21:34:15.356Z,59.26
2023-11-25T21:36:43.753Z,58.98
2023-11-25T21:39:11.836Z,58.96
2023-11-25T21:41:39.555Z,59.01
2023-11-25T21:44:07.542Z,58.82
2023-11-25T21:46:34.762Z,58.75
2023-11-25T21:49:02.076Z,58.32
2023-11-25T21:51:29.400Z,58.35
2023-11-25T21:53:56.914Z,58.41
2023-11-25T21:56:25.603Z,58.86
2023-11-25T21:58:53.169Z,59.44
2023-11-25T22:01:20.617Z,60.41
2023-11-25T22:03:48.137Z,60.95
2023-11-25T22:06:28.601Z,60.23
2023-11-25T22:08:57.673Z,60.73
2023-11-25T22:11:26.696Z,61.38
2023-11-25T22:13:54.447Z,61.23
2023-11-25T22:16:27.268Z,61.10
2023-11-25T22:18:55.031Z,60.25
2023-11-25T22:21:22.489Z,59.86
2023-11-25T22:23:50.984Z,60.50
2023-11-25T22:26:34.791Z,59.91
2023-11-25T22:29:05.695Z,59.24
2023-11-25T22:31:34.423Z,59.13
2023-11-25T22:34:02.359Z,58.64
2023-11-25T22:36:32.365Z,60.14
2023-11-25T22:38:59.660Z,61.02
2023-11-25T22:41:27.057Z,61.27
2023-11-25T22:43:55.237Z,61.11
2023-11-25T22:46:24.667Z,61.28
2023-11-25T22:48:53.185Z,62.51
2023-11-25T22:51:24.987Z,64.07
2023-11-25T22:53:53.047Z,64.45
2023-11-25T22:56:20.941Z,64.79
2023-11-25T22:58:48.926Z,63.60
2023-11-25T23:01:20.771Z,62.83
2023-11-25T23:03:55.244Z,62.73
2023-11-25T23:06:24.503Z,63.14
2023-11-25T23:08:53.822Z,63.50
2023-11-25T23:11:26.481Z,63.52
2023-11-25T23:13:54.106Z,64.33
2023-11-25T23:16:27.200Z,64.11
2023-11-25T23:18:54.501Z,64.18
2023-11-25T23:21:22.754Z,64.41
2023-11-25T23:23:50.380Z,63.48
2023-11-25T23:26:17.897Z,62.74
2023-11-25T23:28:45.930Z,63.22
2023-11-25T23:31:18.423Z,62.63
2023-11-25T23:33:45.947Z,63.47
2023-11-25T23:36:13.274Z,63.87
2023-11-25T23:38:40.706Z,62.21
2023-11-25T23:41:07.998Z,63.74
2023-11-25T23:43:35.710Z,63.66
2023-11-25T23:46:03.261Z,63.48
2023-11-25T23:48:31.546Z,63.32
2023-11-25T23:50:59.037Z,63.75
2023-11-25T23:53:26.665Z,63.50
2023-11-25T23:55:54.575Z,63.18
2023-11-25T23:58:22.661Z,63.27
